ADDS TAF Board (Experimental) INFO Settings
IDs: Format: Expanded Condensed

KPHL - Philadelphia Intl, PA, US

Issued at 1135 UTC 05 Jul 2015
Updated at: 1458 UTC 05 Jul 2015
Time1454Z 05/15Z 05/16Z 05/17Z 05/18Z 05/19Z 05/20Z 05/21Z 05/22Z 05/23Z 06/00Z 06/01Z 06/02Z 06/03Z
Type OBS PRVL PRVL PRVL PRVL PRVL PRVL PRVL PRVL PRVL PRVL PRVL PRVL PRVL
VIS 10 >6 >6 >6 >6 >6 >6 >6 >6 >6 >6 >6 >6 >6
CIG 260 -- -- -- -- -- -- -- -- -- -- -- -- --
Cover BKN SCT SCT FEW FEW FEW FEW FEW FEW FEW FEW SCT SCT SCT
FltCat VFR VFR VFR VFR VFR VFR VFR VFR VFR VFR VFR VFR VFR VFR
WX -- -- -- -- -- -- -- -- -- -- -- -- -- --
WDir 180 VRB VRB 210 210 210 210 210 210 210 210 180 180 180
WSpd 4 4 4 6 6 6 6 6 6 6 6 4 4 4
WGst -- -- -- -- -- -- -- -- -- -- -- -- -- --
R08/26
XWnd -4 VRB VRB -4 -4 -4 -4 -4 -4 -4 -4 -4 -4 -4
HWnd -1 VRB VRB -4 -4 -4 -4 -4 -4 -4 -4 -1 -1 -1
R09/27
XWnd -4 VRB VRB -4 -4 -4 -4 -4 -4 -4 -4 -4 -4 -4
HWnd -1 VRB VRB -4 -4 -4 -4 -4 -4 -4 -4 -1 -1 -1
R17/35
XWnd -1 VRB VRB -5 -5 -5 -5 -5 -5 -5 -5 -1 -1 -1
HWnd 4 VRB VRB 4 4 4 4 4 4 4 4 4 4 4

NOTE: TEMPO conditions in [brackets]. Keep in mind TEMPO conditions might be better (lower impact) than prevailing conditions.

Raw TAF
KPHL 051135Z 0512/0618 VRB04KT P6SM SCT040 SCT250
  FM051700 21006KT P6SM FEW050
  FM060100 18004KT P6SM SCT250
  FM060600 VRB03KT P6SM BKN200
  FM061200 16006KT P6SM BKN150
  PROB30 0614/0618 5SM -SHRA


Raw METAR
KPHL 051454Z 18004KT 10SM SCT030 SCT200 BKN260 25/16 A3015 RMK AO2 SLP209 T02500161 51008 $
KPHL 051354Z VRB03KT 10SM FEW030 FEW140 BKN260 24/15 A3015 RMK AO2 SLP207 T02390150 $
KPHL 051254Z VRB03KT 10SM FEW040 SCT120 BKN260 23/15 A3014 RMK AO2 SLP205 T02330150 $
KPHL 051250Z 20003KT 10SM FEW040 BKN260 23/16 A3014 RMK AO2 $
KPHL 051154Z 00000KT 8SM R09R/6000VP6000FT FEW040 BKN260 22/17 A3013 RMK AO2 SLP201 70002 T02170167 10222 20194 53018 $

METAR Board
Radar Display
Forecast Discussion

TAF Board Legend

Potential Impact
Threat None Slight Moderate High
Visibility (sm) ≥5.1 5.1>X≥3 3>X≥1 <1
Ceiling (100 ft) ≥30.1 30.1>X≥10 10>X≥5 <5
Wind Speed (kt) <10 10≤X<20 20≤X<30 ≥30
Wind Gust (kt) <15 15≤X<25 25≤X<35 ≥35
Weather No Wx Reported VCTS,-TS,-FZRA,SN TS,FZRA +TS,+FZRA,+SN